createdAt,value
2023-02-11T00:01:29.624Z,20.10
2023-02-11T00:04:01.730Z,22.23
2023-02-11T00:06:34.714Z,23.00
2023-02-11T00:09:06.817Z,21.20
2023-02-11T00:11:37.790Z,20.37
2023-02-11T00:14:11.025Z,20.50
2023-02-11T00:16:41.974Z,21.70
2023-02-11T00:19:12.852Z,21.40
2023-02-11T00:21:43.722Z,21.00
2023-02-11T00:24:14.611Z,21.80
2023-02-11T00:26:45.491Z,20.67
2023-02-11T00:29:16.455Z,23.20
2023-02-11T00:31:47.595Z,21.07
2023-02-11T00:34:18.644Z,21.13
2023-02-11T00:36:49.510Z,20.30
2023-02-11T00:39:20.394Z,21.27
2023-02-11T00:41:51.795Z,21.03
2023-02-11T00:44:22.700Z,21.10
2023-02-11T00:46:53.640Z,19.80
2023-02-11T00:49:25.313Z,20.87
2023-02-11T00:51:56.209Z,20.67
2023-02-11T00:54:29.871Z,21.17
2023-02-11T00:57:00.954Z,20.30
2023-02-11T00:59:31.894Z,21.30
2023-02-11T01:02:02.849Z,20.60
2023-02-11T01:04:33.805Z,22.77
2023-02-11T01:07:04.733Z,19.73
2023-02-11T01:09:38.849Z,21.37
2023-02-11T01:12:09.711Z,19.80
2023-02-11T01:14:40.634Z,20.43
2023-02-11T01:17:12.109Z,19.17
2023-02-11T01:19:43.151Z,22.03
2023-02-11T01:22:14.289Z,22.00
2023-02-11T01:24:45.290Z,21.50
2023-02-11T01:27:16.216Z,22.87
2023-02-11T01:29:47.102Z,22.27
2023-02-11T01:32:18.091Z,22.20
2023-02-11T01:34:50.120Z,21.37
2023-02-11T01:37:20.978Z,21.13
2023-02-11T01:39:52.233Z,22.67
2023-02-11T01:42:24.068Z,21.17
2023-02-11T01:44:57.532Z,22.23
2023-02-11T01:47:28.379Z,21.77
2023-02-11T01:50:01.756Z,20.17
2023-02-11T01:52:37.290Z,21.43
2023-02-11T01:55:31.502Z,21.70
2023-02-11T01:58:05.604Z,21.40
2023-02-11T02:00:39.020Z,21.73
2023-02-11T02:03:22.557Z,20.33
2023-02-11T02:06:28.716Z,21.87
2023-02-11T02:09:11.591Z,19.67
2023-02-11T02:11:42.564Z,22.33
2023-02-11T02:14:13.567Z,20.43
2023-02-11T02:16:45.522Z,19.47
2023-02-11T02:19:57.866Z,20.60
2023-02-11T02:22:49.586Z,20.63
2023-02-11T02:26:01.258Z,19.83
2023-02-11T02:28:44.261Z,20.00
2023-02-11T02:31:24.419Z,19.90
2023-02-11T02:34:09.322Z,19.27
2023-02-11T02:36:49.322Z,19.73
2023-02-11T02:39:32.694Z,20.97
2023-02-11T02:42:05.355Z,21.10
2023-02-11T02:44:36.282Z,18.80
2023-02-11T02:47:08.261Z,18.73
2023-02-11T02:49:39.136Z,22.50
2023-02-11T02:52:31.880Z,20.63
2023-02-11T02:55:12.278Z,20.40
2023-02-11T02:58:00.457Z,19.87
2023-02-11T03:01:12.799Z,20.77
2023-02-11T03:04:02.270Z,19.67
2023-02-11T03:06:51.917Z,19.17
2023-02-11T03:09:32.176Z,19.03
2023-02-11T03:12:04.206Z,18.87
2023-02-11T03:14:36.850Z,19.70
2023-02-11T03:17:10.144Z,20.20
2023-02-11T03:19:44.656Z,21.43
2023-02-11T03:22:28.375Z,20.77
2023-02-11T03:25:00.721Z,21.13
2023-02-11T03:27:41.838Z,21.73
2023-02-11T03:30:26.591Z,21.93
2023-02-11T03:33:52.623Z,21.80
2023-02-11T03:36:46.114Z,20.07
2023-02-11T03:39:24.803Z,19.80
2023-02-11T03:41:58.619Z,21.67
2023-02-11T03:44:45.575Z,19.70
2023-02-11T03:47:20.943Z,18.60
2023-02-11T03:49:53.654Z,20.30
2023-02-11T03:52:26.397Z,20.07
2023-02-11T03:55:00.964Z,19.20
2023-02-11T03:57:34.279Z,19.83
2023-02-11T04:00:06.670Z,21.37
2023-02-11T04:02:38.559Z,19.77
2023-02-11T04:05:13.279Z,20.63
2023-02-11T04:07:44.186Z,19.13
2023-02-11T04:10:15.450Z,19.27
2023-02-11T04:12:46.334Z,19.57
2023-02-11T04:15:17.871Z,18.40
2023-02-11T04:17:48.969Z,18.13
2023-02-11T04:20:19.966Z,20.50
2023-02-11T04:22:50.827Z,20.03
2023-02-11T04:25:21.708Z,20.53
2023-02-11T04:27:52.568Z,19.53
2023-02-11T04:30:23.526Z,19.17
2023-02-11T04:32:54.484Z,19.80
2023-02-11T04:35:25.688Z,20.40
2023-02-11T04:37:56.737Z,20.77
2023-02-11T04:40:27.711Z,20.30
2023-02-11T04:42:58.715Z,21.17
2023-02-11T04:45:29.590Z,21.43
2023-02-11T04:48:03.318Z,22.30
2023-02-11T04:50:34.249Z,21.03
2023-02-11T04:53:05.091Z,19.90
2023-02-11T04:55:36.605Z,20.30
2023-02-11T04:58:07.425Z,20.67
2023-02-11T05:00:38.331Z,20.50
2023-02-11T05:03:09.186Z,20.40
2023-02-11T05:05:42.406Z,21.17
2023-02-11T05:08:13.667Z,20.07
2023-02-11T05:10:48.102Z,20.53
2023-02-11T05:13:19.154Z,21.30
2023-02-11T05:15:50.648Z,22.03
2023-02-11T05:18:22.340Z,18.53
2023-02-11T05:20:53.217Z,19.07
2023-02-11T05:23:24.131Z,18.67
2023-02-11T05:25:55.000Z,21.00
2023-02-11T05:28:25.944Z,20.97
2023-02-11T05:30:57.127Z,18.97
2023-02-11T05:33:28.452Z,19.37
2023-02-11T05:36:06.001Z,20.10
2023-02-11T05:38:37.738Z,19.80
2023-02-11T05:41:09.854Z,18.70
2023-02-11T05:43:40.963Z,18.17
2023-02-11T05:46:11.908Z,18.47
2023-02-11T05:48:43.016Z,19.73
2023-02-11T05:51:13.864Z,17.20
2023-02-11T05:53:44.736Z,18.60
2023-02-11T05:56:15.659Z,19.20
2023-02-11T05:58:46.556Z,18.40
2023-02-11T06:01:17.491Z,18.43
2023-02-11T06:03:50.068Z,17.33
2023-02-11T06:06:21.047Z,18.23
2023-02-11T06:08:51.992Z,17.90
2023-02-11T06:11:22.969Z,18.07
2023-02-11T06:13:53.941Z,17.63
2023-02-11T06:16:24.982Z,18.33
2023-02-11T06:18:56.595Z,18.83
2023-02-11T06:21:42.473Z,17.20
2023-02-11T06:24:15.442Z,19.07
2023-02-11T06:26:47.209Z,18.00
2023-02-11T06:29:18.039Z,18.20
2023-02-11T06:31:49.030Z,17.13
2023-02-11T06:34:19.948Z,17.90
2023-02-11T06:36:50.843Z,18.90
2023-02-11T06:39:21.811Z,17.20
2023-02-11T06:41:52.705Z,18.43
2023-02-11T06:44:23.830Z,18.10
2023-02-11T06:46:54.810Z,19.77
2023-02-11T06:49:25.656Z,18.83
2023-02-11T06:51:56.605Z,17.63
2023-02-11T06:54:27.496Z,18.70
2023-02-11T06:56:58.431Z,19.07
2023-02-11T06:59:29.352Z,19.57
2023-02-11T07:02:00.260Z,18.17
2023-02-11T07:04:31.158Z,19.27
2023-02-11T07:07:02.092Z,19.47
2023-02-11T07:09:33.100Z,19.00
2023-02-11T07:12:04.486Z,19.93
2023-02-11T07:14:35.359Z,20.40
2023-02-11T07:17:06.506Z,19.03
2023-02-11T07:19:37.450Z,20.67
2023-02-11T07:22:08.584Z,18.20
2023-02-11T07:24:39.531Z,18.40
2023-02-11T07:27:10.452Z,17.33
2023-02-11T07:29:42.787Z,18.80
2023-02-11T07:32:14.472Z,17.90
2023-02-11T07:34:45.564Z,20.17
2023-02-11T07:37:16.532Z,18.60
2023-02-11T07:39:47.372Z,19.60
2023-02-11T07:42:18.297Z,19.90
2023-02-11T07:44:50.529Z,20.43
2023-02-11T07:47:21.733Z,18.53
2023-02-11T07:49:56.108Z,18.80
2023-02-11T07:52:31.013Z,18.10
2023-02-11T07:55:04.729Z,19.70
2023-02-11T07:57:36.237Z,19.40
2023-02-11T08:00:07.614Z,19.00
2023-02-11T08:02:38.498Z,18.67
2023-02-11T08:05:09.436Z,19.90
2023-02-11T08:07:40.303Z,19.77
2023-02-11T08:10:11.257Z,18.73
2023-02-11T08:12:42.095Z,19.93
2023-02-11T08:15:13.454Z,19.80
2023-02-11T08:17:44.324Z,17.50
2023-02-11T08:20:15.637Z,19.13
2023-02-11T08:22:46.574Z,19.83
2023-02-11T08:25:17.662Z,12.40
2023-02-11T08:27:48.506Z,20.67
2023-02-11T08:30:19.845Z,21.77
2023-02-11T08:32:51.118Z,19.87
2023-02-11T08:35:22.032Z,20.33
2023-02-11T08:37:53.298Z,18.20
2023-02-11T08:40:25.314Z,18.87
2023-02-11T08:42:56.242Z,18.17
2023-02-11T08:45:27.269Z,17.87
2023-02-11T08:47:58.168Z,18.30
2023-02-11T08:50:29.082Z,18.47
2023-02-11T08:53:00.095Z,19.93
2023-02-11T08:55:31.135Z,19.20
2023-02-11T08:58:02.012Z,17.20
2023-02-11T09:00:33.202Z,18.73
2023-02-11T09:03:04.280Z,19.07
2023-02-11T09:05:35.198Z,18.90
2023-02-11T09:08:06.192Z,20.60
2023-02-11T09:10:37.816Z,19.03
2023-02-11T09:13:09.999Z,18.97
2023-02-11T09:15:40.935Z,19.40
2023-02-11T09:18:11.777Z,19.63
2023-02-11T09:20:42.640Z,20.27
2023-02-11T09:23:13.797Z,20.70
2023-02-11T09:25:44.706Z,17.97
2023-02-11T09:28:15.954Z,20.13
2023-02-11T09:30:47.153Z,18.20
2023-02-11T09:33:18.049Z,19.40
2023-02-11T09:35:49.018Z,19.83
2023-02-11T09:38:19.900Z,19.13
2023-02-11T09:40:51.056Z,20.17
2023-02-11T09:43:27.502Z,19.33
2023-02-11T09:45:59.320Z,19.77
2023-02-11T09:48:41.858Z,19.33
2023-02-11T09:51:47.299Z,19.80
2023-02-11T09:54:37.549Z,18.60
2023-02-11T09:57:26.591Z,20.53
2023-02-11T09:59:59.135Z,18.97
2023-02-11T10:02:56.825Z,19.83
2023-02-11T10:05:48.291Z,18.40
2023-02-11T10:09:17.190Z,17.93
2023-02-11T10:12:03.573Z,17.07
2023-02-11T10:15:02.785Z,17.47
2023-02-11T10:17:42.585Z,15.90
2023-02-11T10:20:59.513Z,18.37
2023-02-11T10:23:37.168Z,16.97
2023-02-11T10:26:15.451Z,15.67
2023-02-11T10:28:51.125Z,18.30
2023-02-11T10:31:50.140Z,17.80
2023-02-11T10:34:20.987Z,18.40
2023-02-11T10:36:51.888Z,17.70
2023-02-11T10:39:26.732Z,17.40
2023-02-11T10:42:05.472Z,18.43
2023-02-11T10:44:49.445Z,17.10
2023-02-11T10:47:28.623Z,17.60
2023-02-11T10:50:03.704Z,17.10
2023-02-11T10:52:34.634Z,16.47
2023-02-11T10:55:18.300Z,17.00
2023-02-11T10:57:59.697Z,16.37
2023-02-11T11:00:37.198Z,15.60
2023-02-11T11:03:20.894Z,16.30
2023-02-11T11:06:04.986Z,15.87
2023-02-11T11:08:48.954Z,15.67
2023-02-11T11:11:23.147Z,14.97
2023-02-11T11:13:53.979Z,14.63
2023-02-11T11:16:36.300Z,13.00
2023-02-11T11:19:07.176Z,14.33
2023-02-11T11:21:47.068Z,14.17
2023-02-11T11:24:44.790Z,13.27
2023-02-11T11:27:24.551Z,13.63
2023-02-11T11:29:56.737Z,11.73
2023-02-11T11:32:33.077Z,11.77
2023-02-11T11:35:22.045Z,12.40
2023-02-11T11:38:01.983Z,11.00
2023-02-11T11:40:35.692Z,10.53
2023-02-11T11:43:23.138Z,11.80
2023-02-11T11:45:57.975Z,11.20
2023-02-11T11:48:37.156Z,10.17
2023-02-11T11:51:12.215Z,9.50
2023-02-11T11:54:12.532Z,9.30
2023-02-11T11:56:57.243Z,8.70
2023-02-11T11:59:30.478Z,11.33
2023-02-11T12:02:41.361Z,10.50
2023-02-11T12:05:17.484Z,10.50
2023-02-11T12:08:15.844Z,11.23
2023-02-11T12:11:24.049Z,9.63
2023-02-11T12:14:27.322Z,8.10
2023-02-11T12:17:42.764Z,8.60
2023-02-11T12:20:38.880Z,7.73
2023-02-11T12:23:37.462Z,7.03
2023-02-11T12:26:20.697Z,7.40
2023-02-11T12:29:34.226Z,7.87
2023-02-11T12:32:42.445Z,6.17
2023-02-11T12:35:27.580Z,6.50
2023-02-11T12:38:48.282Z,7.57
2023-02-11T12:42:03.282Z,7.87
2023-02-11T12:45:17.961Z,7.40
2023-02-11T12:48:26.961Z,7.10
2023-02-11T12:51:39.485Z,7.17
2023-02-11T12:54:18.480Z,8.30
2023-02-11T12:57:04.985Z,7.33
2023-02-11T12:59:39.044Z,7.17
2023-02-11T13:02:35.109Z,9.40
2023-02-11T13:05:32.448Z,7.60
2023-02-11T13:08:13.379Z,7.73
2023-02-11T13:10:51.402Z,6.73
2023-02-11T13:14:18.928Z,8.30
2023-02-11T13:16:51.771Z,9.60
2023-02-11T13:19:39.159Z,10.07
2023-02-11T13:22:47.974Z,10.63
2023-02-11T13:25:28.276Z,11.60
2023-02-11T13:28:50.285Z,11.83
2023-02-11T13:31:21.370Z,12.13
2023-02-11T13:33:53.237Z,11.60
2023-02-11T13:36:28.420Z,13.13
2023-02-11T13:39:01.765Z,12.30
2023-02-11T13:41:42.201Z,11.83
2023-02-11T13:44:15.492Z,12.97
2023-02-11T13:47:02.268Z,12.60
2023-02-11T13:49:40.982Z,11.90
2023-02-11T13:52:38.940Z,12.33
2023-02-11T13:55:21.491Z,11.93
2023-02-11T13:58:07.753Z,11.73
2023-02-11T14:00:38.732Z,11.97
2023-02-11T14:03:30.852Z,12.23
2023-02-11T14:06:29.356Z,12.50
2023-02-11T14:09:11.527Z,12.07
2023-02-11T14:11:50.219Z,14.73
2023-02-11T14:14:28.833Z,12.77
2023-02-11T14:16:59.981Z,12.90
2023-02-11T14:19:49.487Z,11.03
2023-02-11T14:22:31.801Z,12.40
2023-02-11T14:25:05.570Z,11.97
2023-02-11T14:27:41.436Z,17.90
2023-02-11T14:30:34.560Z,13.27
2023-02-11T14:33:52.273Z,13.43
2023-02-11T14:36:43.781Z,13.33
2023-02-11T14:39:25.490Z,14.17
2023-02-11T14:41:57.194Z,13.23
2023-02-11T14:44:31.861Z,12.00
2023-02-11T14:47:03.254Z,12.43
2023-02-11T14:49:39.315Z,13.07
2023-02-11T14:52:34.103Z,11.93
2023-02-11T14:55:23.742Z,13.57
2023-02-11T14:58:18.950Z,14.03
2023-02-11T15:01:03.340Z,13.03
2023-02-11T15:03:43.071Z,12.80
2023-02-11T15:06:23.754Z,12.17
2023-02-11T15:09:13.235Z,12.57
2023-02-11T15:11:47.969Z,12.50
2023-02-11T15:14:26.447Z,12.17
2023-02-11T15:17:03.773Z,11.70
2023-02-11T15:19:41.072Z,11.87
2023-02-11T15:22:27.406Z,12.20
2023-02-11T15:25:11.025Z,12.60
2023-02-11T15:27:54.035Z,11.97
2023-02-11T15:30:34.199Z,11.87
2023-02-11T15:33:06.815Z,11.93
2023-02-11T15:35:41.086Z,13.17
2023-02-11T15:38:13.862Z,11.90
2023-02-11T15:41:07.396Z,12.20
2023-02-11T15:43:52.952Z,14.00
2023-02-11T15:46:24.537Z,12.30
2023-02-11T15:48:55.818Z,23.50
2023-02-11T15:51:35.540Z,13.60
2023-02-11T15:54:22.638Z,12.87
2023-02-11T15:57:01.642Z,12.40
2023-02-11T15:59:52.355Z,12.27
2023-02-11T16:02:33.352Z,13.57
2023-02-11T16:05:08.662Z,14.27
2023-02-11T16:07:50.318Z,13.60
2023-02-11T16:10:35.309Z,12.40
2023-02-11T16:13:06.096Z,12.67
2023-02-11T16:16:05.720Z,13.60
2023-02-11T16:19:02.153Z,12.07
2023-02-11T16:21:45.353Z,12.97
2023-02-11T16:24:30.660Z,13.83
2023-02-11T16:27:14.977Z,14.50
2023-02-11T16:29:48.844Z,12.77
2023-02-11T16:32:23.786Z,13.97
2023-02-11T16:34:59.093Z,14.97
2023-02-11T16:37:30.016Z,13.00
2023-02-11T16:40:00.864Z,16.00
2023-02-11T16:42:31.725Z,14.80
2023-02-11T16:45:03.320Z,15.03
2023-02-11T16:47:35.703Z,14.80
2023-02-11T16:50:18.948Z,16.63
2023-02-11T16:52:50.172Z,14.93
2023-02-11T16:55:22.272Z,16.10
2023-02-11T16:57:53.198Z,14.47
2023-02-11T17:00:24.528Z,14.80
2023-02-11T17:02:55.717Z,15.47
2023-02-11T17:05:27.067Z,14.70
2023-02-11T17:07:58.152Z,15.23
2023-02-11T17:10:30.815Z,16.87
2023-02-11T17:13:01.770Z,16.40
2023-02-11T17:15:32.918Z,15.40
2023-02-11T17:18:04.121Z,16.93
2023-02-11T17:20:35.041Z,16.13
2023-02-11T17:23:05.955Z,16.30
2023-02-11T17:25:37.453Z,15.13
2023-02-11T17:28:12.162Z,16.10
2023-02-11T17:30:44.153Z,16.70
2023-02-11T17:33:15.083Z,16.97
2023-02-11T17:35:47.377Z,17.17
2023-02-11T17:38:18.319Z,15.80
2023-02-11T17:40:58.964Z,16.17
2023-02-11T17:43:29.902Z,16.30
2023-02-11T17:46:00.914Z,15.90
2023-02-11T17:48:31.859Z,16.23
2023-02-11T17:51:02.786Z,16.83
2023-02-11T17:53:33.677Z,15.70
2023-02-11T17:56:07.243Z,16.20
2023-02-11T17:58:38.152Z,16.47
2023-02-11T18:01:09.514Z,17.23
2023-02-11T18:03:40.398Z,16.60
2023-02-11T18:06:11.833Z,17.23
2023-02-11T18:08:43.129Z,16.80
2023-02-11T18:11:16.412Z,16.50
2023-02-11T18:13:52.681Z,15.97
2023-02-11T18:16:25.769Z,17.37
2023-02-11T18:18:58.549Z,16.83
2023-02-11T18:21:29.611Z,15.77
2023-02-11T18:24:06.045Z,15.40
2023-02-11T18:26:37.730Z,15.33
2023-02-11T18:29:08.802Z,15.80
2023-02-11T18:31:39.852Z,16.50
2023-02-11T18:34:12.694Z,16.13
2023-02-11T18:36:43.632Z,15.87
2023-02-11T18:39:14.599Z,15.70
2023-02-11T18:41:46.557Z,15.33
2023-02-11T18:44:22.102Z,16.07
2023-02-11T18:46:53.709Z,16.30
2023-02-11T18:49:24.643Z,16.93
2023-02-11T18:51:55.627Z,15.83
2023-02-11T18:54:26.586Z,16.97
2023-02-11T18:56:57.458Z,17.40
2023-02-11T18:59:28.572Z,17.37
2023-02-11T19:01:59.604Z,17.80
2023-02-11T19:04:30.560Z,16.50
2023-02-11T19:07:03.795Z,18.10
2023-02-11T19:09:34.976Z,16.43
2023-02-11T19:12:07.997Z,17.47
2023-02-11T19:14:39.163Z,16.57
2023-02-11T19:17:12.487Z,15.83
2023-02-11T19:19:43.420Z,16.80
2023-02-11T19:22:14.404Z,16.90
2023-02-11T19:24:46.442Z,17.70
2023-02-11T19:27:17.381Z,17.70
2023-02-11T19:29:48.548Z,17.93
2023-02-11T19:32:19.422Z,17.30
2023-02-11T19:34:51.687Z,17.90
2023-02-11T19:37:22.616Z,17.27
2023-02-11T19:39:53.444Z,17.40
2023-02-11T19:42:27.577Z,18.20
2023-02-11T19:44:58.627Z,17.37
2023-02-11T19:47:29.511Z,17.90
2023-02-11T19:50:00.427Z,17.40
2023-02-11T19:52:31.666Z,18.20
2023-02-11T19:55:02.519Z,17.10
2023-02-11T19:57:33.450Z,18.03
2023-02-11T20:00:06.365Z,17.37
2023-02-11T20:02:39.312Z,17.00
2023-02-11T20:05:10.204Z,17.80
2023-02-11T20:07:41.097Z,17.50
2023-02-11T20:10:12.110Z,18.70
2023-02-11T20:12:42.995Z,17.60
2023-02-11T20:15:13.926Z,18.87
2023-02-11T20:17:44.958Z,17.87
2023-02-11T20:20:15.975Z,18.70
2023-02-11T20:22:46.892Z,17.53
2023-02-11T20:25:17.956Z,19.07
2023-02-11T20:27:48.824Z,19.10
2023-02-11T20:30:21.563Z,19.83
2023-02-11T20:32:52.563Z,18.77
2023-02-11T20:35:23.723Z,18.37
2023-02-11T20:37:54.625Z,17.00
2023-02-11T20:40:25.495Z,18.33
2023-02-11T20:42:56.764Z,19.13
2023-02-11T20:45:27.597Z,18.90
2023-02-11T20:47:58.480Z,17.60
2023-02-11T20:50:29.733Z,20.23
2023-02-11T20:53:00.817Z,19.10
2023-02-11T20:55:32.240Z,20.07
2023-02-11T20:58:03.324Z,18.97
2023-02-11T21:00:37.103Z,19.97
2023-02-11T21:03:07.993Z,20.33
2023-02-11T21:05:38.907Z,17.43
2023-02-11T21:08:09.757Z,18.53
2023-02-11T21:10:40.682Z,19.60
2023-02-11T21:13:11.611Z,19.73
2023-02-11T21:15:42.506Z,19.37
2023-02-11T21:18:13.435Z,19.63
2023-02-11T21:20:44.301Z,17.87
2023-02-11T21:23:15.311Z,18.23
2023-02-11T21:25:46.397Z,18.10
2023-02-11T21:28:17.339Z,20.00
2023-02-11T21:30:51.189Z,19.47
2023-02-11T21:33:23.501Z,19.30
2023-02-11T21:36:03.617Z,19.20
2023-02-11T21:38:34.802Z,20.17
2023-02-11T21:41:06.802Z,20.60
2023-02-11T21:43:37.709Z,20.10
2023-02-11T21:46:15.349Z,21.90
2023-02-11T21:48:46.881Z,20.30
2023-02-11T21:51:22.357Z,20.10
2023-02-11T21:54:01.201Z,20.83
2023-02-11T21:56:33.888Z,22.40
2023-02-11T21:59:04.871Z,20.57
2023-02-11T22:01:36.897Z,21.07
2023-02-11T22:04:07.764Z,22.07
2023-02-11T22:06:39.028Z,22.93
2023-02-11T22:09:11.100Z,22.90
2023-02-11T22:11:42.008Z,22.40
2023-02-11T22:14:12.844Z,21.90
2023-02-11T22:16:45.920Z,22.43
2023-02-11T22:19:17.325Z,21.10
2023-02-11T22:21:48.239Z,21.80
2023-02-11T22:24:19.228Z,21.10
2023-02-11T22:26:50.088Z,22.30
2023-02-11T22:29:21.008Z,21.10
2023-02-11T22:31:51.924Z,20.80
2023-02-11T22:34:22.827Z,23.60
2023-02-11T22:36:53.746Z,21.97
2023-02-11T22:39:24.728Z,21.60
2023-02-11T22:41:56.672Z,24.53
2023-02-11T22:44:27.642Z,22.47
2023-02-11T22:46:58.532Z,23.80
2023-02-11T22:49:29.460Z,24.13
2023-02-11T22:52:00.388Z,22.93
2023-02-11T22:54:31.445Z,23.83
2023-02-11T22:57:02.375Z,23.43
2023-02-11T22:59:33.252Z,23.70
2023-02-11T23:02:04.266Z,22.37
2023-02-11T23:04:35.221Z,23.30
2023-02-11T23:07:06.103Z,21.67
2023-02-11T23:09:37.004Z,22.70
2023-02-11T23:12:07.938Z,21.80
2023-02-11T23:14:38.808Z,22.30
2023-02-11T23:17:09.684Z,20.43
2023-02-11T23:19:40.541Z,21.30
2023-02-11T23:22:11.460Z,20.10
2023-02-11T23:24:42.333Z,22.00
2023-02-11T23:27:13.580Z,21.70
2023-02-11T23:29:44.456Z,22.83
2023-02-11T23:32:15.336Z,21.40
2023-02-11T23:34:46.259Z,20.90
2023-02-11T23:37:17.149Z,19.87
2023-02-11T23:39:47.982Z,21.57
2023-02-11T23:42:18.863Z,22.43
2023-02-11T23:44:49.699Z,22.33
2023-02-11T23:47:20.602Z,21.83
2023-02-11T23:49:51.435Z,22.00
2023-02-11T23:52:22.333Z,31.47
2023-02-11T23:54:53.160Z,24.43
2023-02-11T23:57:24.081Z,24.97
2023-02-11T23:59:55.018Z,23.00
